WEATHER DATA

YESTERDAY
Time Temp. Dewp. Hum. Wind dir Wind speed Wind gust Bar. 1h Prec. 24h Prec.
00:02 11 5.5 69 0 0.6 1015.5 0.0000 0.0000
00:21 10.7 5.5 70 0 0.6 1015.4 0.0000 0.0000
00:32 10.6 5.6 71 161 0.3 0.6 1015.4 0.0000 0.0000
00:42 10.5 5.5 71 0 0.6 1015.4 0.0000 0.0000
00:51 10.3 5.5 72 147 0.3 0.6 1015.4 0.0000 0.0000
01:02 10.4 5.8 73 51 0.3 0.6 1015.5 0.0000 0.0000
01:12 10.3 5.7 73 90 0.3 0.6 1015.5 0.0000 0.0000
01:22 10.2 5.8 74 90 0.3 0.6 1015.4 0.0000 0.0000
01:32 10 5.6 74 90 0.3 0.6 1015.3 0.0000 0.0000
01:42 9.9 5.5 74 90 0.3 0.6 1015.3 0.0000 0.0000
01:52 9.7 5.5 75 90 0.3 0.6 1015.1 0.0000 0.0000
02:02 9.6 5.4 75 0 0.6 1015 0.0000 0.0000
02:12 9.4 5.4 76 0 0.3 1015 0.0000 0.0000
02:23 9.3 5.3 76 0 0.6 1014.9 0.0000 0.0000
02:32 9.3 5.5 77 0 0.8 1014.9 0.0000 0.0000
02:42 9.2 5.4 77 90 0.3 0.6 1014.9 0.0000 0.0000
03:03 9.1 5.5 78 0 0.6 1014.7 0.0000 0.0000
03:12 9.1 5.5 78 0 0.6 1014.5 0.0000 0.0000
03:23 9.1 5.5 78 0 0.6 1014.5 0.0000 0.0000
03:33 9.2 5.6 78 0 0.6 1014.5 0.0000 0.0000
03:53 9.3 5.8 79 135 0.3 0.6 1014.4 0.0000 0.0000
04:13 9.1 5.7 79 90 0.3 0.6 1014.3 0.0000 0.0000
04:23 9 5.6 79 90 0.3 0.6 1014.3 0.0000 0.0000
04:43 8.9 5.5 79 147 0.3 0.6 1014.2 0.0000 0.0000
05:03 9 5.7 80 140 0.3 0.6 1014.2 0.0000 0.0000
05:14 8.9 5.5 79 0 0.6 1014.1 0.0000 0.0000
05:24 8.9 5.5 79 126 0.3 0.6 1014.1 0.0000 0.0000
05:33 8.7 5.3 79 0 0.6 1014.1 0.0000 0.0000
05:43 8.6 5.2 79 125 0.3 0.6 1014.2 0.0000 0.0000
05:54 8.5 5.1 79 135 0.3 0.6 1014.2 0.0000 0.0000
06:14 8.3 5.1 80 90 0.3 0.6 1014.2 0.0000 0.0000
06:24 8.3 5.1 80 151 0.3 0.6 1014.1 0.0000 0.0000
06:44 8.6 5.5 81 158 0.3 0.8 1014.2 0.0000 0.0000
06:54 8.9 5.8 81 194 0.6 1.1 1014.1 0.0000 0.0000
07:14 9.9 7 82 199 0.6 1.4 1014.4 0.0000 0.0000
07:17 10.1 7 81 197 0.6 1.1 1014.2 0.0000 0.0000
07:26 10.6 7.5 81 194 0.6 1.1 1014.1 0.0000 0.0000
07:36 11.2 7.9 80 202 0.6 1.1 1014.3 0.0000 0.0000
07:47 11.6 8.1 79 187 0.6 1.1 1014.2 0.0000 0.0000
07:57 12.2 8.5 78 201 0.6 1.7 1014.2 0.0000 0.0000
08:16 13.6 9.3 75 210 0.8 1.9 1014.2 0.0000 0.0000
08:27 14.4 9.6 73 216 0.6 2.2 1014.1 0.0000 0.0000
08:37 15.1 9.9 71 209 1.1 2.2 1013.9 0.0000 0.0000
08:47 15.7 10 69 225 1.1 2.5 1014.1 0.0000 0.0000
08:57 15.9 9.8 67 213 0.8 2.5 1014 0.0000 0.0000
09:07 16 9.9 67 200 0.8 1.4 1014 0.0000 0.0000
09:17 16.3 10.2 67 223 0.8 2.2 1014 0.0000 0.0000
09:27 16.6 10.5 67 223 0.8 2.2 1013.9 0.0000 0.0000
09:38 16.9 10.5 66 234 0.8 1.7 1014.1 0.0000 0.0000
09:48 17.2 11 67 256 0.8 2.2 1014 0.0000 0.0000
09:57 17.6 11.2 66 233 0.8 2.5 1014 0.0000 0.0000
10:07 18.1 11.4 65 234 0.8 1.9 1013.9 0.0000 0.0000
10:18 18.2 11 63 225 0.8 1.9 1013.8 0.0000 0.0000
10:28 18.5 11.1 62 231 1.1 2.5 1013.9 0.0000 0.0000
10:38 19 11.3 61 254 1.4 3.6 1013.9 0.0000 0.0000
10:48 19.6 11.6 60 216 0.8 2.5 1013.8 0.0000 0.0000
10:58 20.2 11.7 58 252 1.1 2.8 1013.9 0.0000 0.0000
11:08 20.7 11.6 56 270 1.4 3.9 1013.8 0.0000 0.0000
11:18 21.1 11.2 53 263 1.4 2.8 1013.8 0.0000 0.0000
11:29 21.3 11.1 52 261 1.4 3.1 1013.7 0.0000 0.0000
11:38 21.6 11 51 270 1.4 3.6 1013.7 0.0000 0.0000
11:48 21.9 11.3 51 242 0.8 2.2 1013.6 0.0000 0.0000
11:59 22.2 11.3 50 222 1.1 2.8 1013.6 0.0000 0.0000
12:09 22.4 11.5 50 253 1.4 3.9 1013.6 0.0000 0.0000
12:19 22.6 11.4 49 247 1.4 2.8 1013.6 0.0000 0.0000
12:28 22.6 11.4 49 239 1.4 3.1 1013.5 0.0000 0.0000
12:39 22.9 11.6 49 243 1.4 4.7 1013.6 0.0000 0.0000
12:49 23.1 11.5 48 255 1.4 3.9 1013.3 0.0000 0.0000
12:59 23.4 11.8 48 264 1.4 2.8 1013.5 0.0000 0.0000
13:09 23.5 11.2 46 270 1.7 3.6 1013.6 0.0000 0.0000
13:19 23.5 11.2 46 279 1.4 3.1 1013.4 0.0000 0.0000
13:29 23.3 10.4 44 284 1.7 3.9 1013.4 0.0000 0.0000
13:39 23.2 9.9 43 270 1.4 3.6 1013.3 0.0000 0.0000
13:50 23.3 9.3 41 279 1.7 3.9 1013.4 0.0000 0.0000
13:57 23.5 8.8 39 270 1.7 4.4 1013.3 0.0000 0.0000
14:07 23.7 9.3 40 290 1.4 2.8 1013.3 0.0000 0.0000
14:17 24.1 9.7 40 278 1.7 4.2 1013.4 0.0000 0.0000
14:27 24.1 11.1 44 278 1.7 3.6 1013.4 0.0000 0.0000
14:37 24 11.7 46 277 1.7 3.9 1013.6 0.0000 0.0000
14:48 23.7 11.7 47 306 2.2 5.6 1013.5 0.0000 0.0000
14:57 23.5 11.9 48 307 1.9 4.7 1013.4 0.0000 0.0000
15:07 23.5 11.5 47 291 1.9 4.2 1013.5 0.0000 0.0000
15:18 23.4 11.5 47 280 1.7 4.4 1013.7 0.0000 0.0000
15:29 23.5 11.2 46 287 1.9 5 1013.7 0.0000 0.0000
15:39 23.4 11.5 47 295 1.4 4.4 1013.6 0.0000 0.0000
15:49 23.3 11.7 48 295 1.9 4.2 1013.8 0.0000 0.0000
15:54 23.2 11.6 48 316 1.7 7.2 1013.8 0.0000 0.0000
16:15 22.9 11.9 50 320 2.2 6.7 1013.8 0.0000 0.0000
16:24 22.7 12.1 51 297 1.9 3.9 1013.8 0.0000 0.0000
16:35 22.4 11.8 51 325 1.9 5.6 1014 0.0000 0.0000
16:45 22.1 10.9 49 321 2.2 5 1013.8 0.0000 0.0000
16:55 21.9 10.7 49 312 1.9 5 1013.9 0.0000 0.0000
17:05 21.8 10.3 48 307 2.2 4.7 1014 0.0000 0.0000
17:15 21.6 10.1 48 306 2.2 7.2 1014 0.0000 0.0000
17:25 21.4 9.6 47 307 1.9 5 1014.1 0.0000 0.0000
17:35 21.4 9.6 47 314 1.9 5.3 1014 0.0000 0.0000
17:45 21.1 9.4 47 310 1.9 4.2 1014 0.0000 0.0000
17:56 21 9.3 47 305 1.9 5.3 1014 0.0000 0.0000
18:05 20.9 8.9 46 299 1.7 4.4 1014 0.0000 0.0000
18:15 20.6 8.3 45 308 1.7 4.2 1014.2 0.0000 0.0000
18:26 20.2 7.6 44 308 2.5 5.6 1014.1 0.0000 0.0000
18:36 20 7.4 44 302 2.2 5.6 1014.2 0.0000 0.0000
18:46 19.7 7.1 44 316 1.9 5.3 1014.1 0.0000 0.0000
18:55 19.4 6.5 43 298 1.4 4.7 1014.1 0.0000 0.0000
19:06 19.2 6.3 43 320 1.9 5.6 1014 0.0000 0.0000
19:16 19.1 6.6 44 310 1.7 4.4 1014.1 0.0000 0.0000
19:26 18.7 6.2 44 313 1.9 4.4 1014.2 0.0000 0.0000
19:36 18.5 6.7 46 313 1.4 2.5 1014.2 0.0000 0.0000
19:46 18.4 6.3 45 306 1.4 4.2 1014.2 0.0000 0.0000
19:56 18.1 6.3 46 305 1.7 3.6 1014.2 0.0000 0.0000
20:06 17.7 6.3 47 299 1.4 3.6 1014.3 0.0000 0.0000
20:17 17.4 6 47 300 1.4 4.2 1014.5 0.0000 0.0000
20:27 16.9 6.1 49 311 1.7 4.7 1014.6 0.0000 0.0000
20:36 16.4 6 50 312 1.7 5.3 1014.7 0.0000 0.0000
20:47 15.9 6.1 52 304 1.4 3.6 1014.8 0.0000 0.0000
20:57 15.5 6.2 54 305 1.4 2.8 1014.8 0.0000 0.0000
21:07 15.2 6.5 56 313 1.1 2.2 1014.9 0.0000 0.0000
21:17 14.9 6.5 57 327 1.1 2.2 1015 0.0000 0.0000
21:27 14.6 6.4 58 315 0.8 1.7 1015.1 0.0000 0.0000
21:37 14.3 6.6 60 315 0.8 1.7 1015.2 0.0000 0.0000
21:47 14 6.6 61 317 0.6 1.9 1015.3 0.0000 0.0000
21:57 13.8 6.9 63 315 0.8 1.9 1015.6 0.0000 0.0000
22:07 13.5 6.8 64 315 0.6 1.4 1015.5 0.0000 0.0000
22:17 13.2 7 66 316 0.8 2.2 1015.6 0.0000 0.0000
22:27 13 7 67 318 0.8 2.5 1015.6 0.0000 0.0000
22:38 12.7 7 68 317 1.1 2.8 1015.7 0.0000 0.0000
22:48 12.5 7 69 316 0.8 2.8 1015.9 0.0000 0.0000
22:58 12.3 7 70 318 0.8 1.9 1015.8 0.0000 0.0000
23:08 12.1 7 71 315 0.8 2.2 1015.8 0.0000 0.0000
23:18 11.9 6.8 71 308 0.8 2.2 1015.8 0.0000 0.0000
23:28 11.7 6.8 72 312 1.1 2.8 1015.9 0.0000 0.0000
23:38 11.5 6.8 73 315 0.8 2.5 1016 0.0000 0.0000
23:49 11.3 6.8 74 313 0.8 1.9 1016 0.0000 0.0000
23:58 11.2 6.9 75 305 0.6 1.7 1015.9 0.0000 0.0000

DAY STATISTIC

2019-05-24
TEMPERATURE
AVERAGE
16.2
HIGH
24.1
14:17
LOW
8.3
06:14
PRESSURE
AVERAGE
1014.3
HIGH
1016.0
23:38
LOW
1013.3
12:49
DEWPOINT
AVERAGE
8.2
HIGH
12.1
16:24
LOW
5.1
05:54
HUMIDITY
AVERAGE
61
HIGH
82
07:14
LOW
39
13:57
WIND SPEED
AVERAGE
1.0
HIGH
2.5
18:26
WIND GUST
AVERAGE
2.7
HIGH
7.2
15:54
WIND DIRECTION
PREVAILING
NW
38.8%
N
0.0
NE
0.7
E
6.7
SE
6.0
S
7.5
SW
13.4
W
17.2
NW
38.8
PRECIPITATION
RAIN HOUR
0.0
RAIN DAY
0.0
TEMPERATURE (°C)
LOW
8.3
HIGH
24.1
AVERAGE
16.2
PRESSURE (hpa)
LOW
1013.3
HIGH
1016.0
AVERAGE
1014.3
DEVICE